Time;durP1;ratioP1;P1;durP2;ratioP2;P2;SDS_P1;SDS_P2;PMS_P1;PMS_P2;Temp;Humidity;BMP_temperature;BMP_pressure;BME280_temperature;BME280_humidity;BME280_pressure;Samples;Min_cycle;Max_cycle;Signal;HPM_P1;HPM_P2
2023/02/15 00:01:52;;;;;;;29.67;17.75;;;3.80;99.90;;;;;;5003422;28;20618;-83
2023/02/15 00:04:20;;;;;;;25.98;15.77;;;3.80;99.90;;;;;;4999735;28;20049;-83
2023/02/15 00:06:46;;;;;;;26.13;17.30;;;3.80;99.90;;;;;;5000744;28;20025;-83
2023/02/15 00:09:12;;;;;;;25.63;16.50;;;3.90;99.90;;;;;;4998164;28;20037;-83
2023/02/15 00:11:49;;;;;;;27.08;16.48;;;3.80;99.90;;;;;;5001404;28;20030;-81
2023/02/15 00:14:23;;;;;;;26.17;16.65;;;3.80;99.90;;;;;;4998995;28;20129;-83
2023/02/15 00:16:51;;;;;;;27.10;16.55;;;3.80;99.90;;;;;;4998290;28;20038;-83
2023/02/15 00:19:21;;;;;;;26.40;16.70;;;3.80;99.90;;;;;;5000882;28;20120;-83
2023/02/15 00:21:47;;;;;;;26.35;17.35;;;3.80;99.90;;;;;;5000294;28;20029;-83
2023/02/15 00:24:14;;;;;;;24.10;15.70;;;3.70;99.90;;;;;;4994835;28;20033;-82
2023/02/15 00:26:40;;;;;;;24.25;15.95;;;3.70;99.90;;;;;;4994938;28;20026;-83
2023/02/15 00:29:08;;;;;;;26.02;16.45;;;3.70;99.90;;;;;;5004341;28;20383;-86
2023/02/15 00:31:35;;;;;;;24.40;15.90;;;3.70;99.90;;;;;;5019514;28;20128;-83
2023/02/15 00:34:02;;;;;;;25.52;16.58;;;3.60;99.90;;;;;;5001094;28;20022;-85
2023/02/15 00:36:27;;;;;;;23.15;15.77;;;3.60;99.90;;;;;;5003838;28;20041;-83
2023/02/15 00:38:53;;;;;;;25.50;16.98;;;3.50;99.90;;;;;;5004359;28;20026;-82
2023/02/15 00:41:18;;;;;;;22.73;15.10;;;3.50;99.90;;;;;;5020192;28;20052;-84
2023/02/15 00:43:44;;;;;;;26.58;17.70;;;3.40;99.90;;;;;;5001808;28;20543;-83
2023/02/15 00:46:12;;;;;;;27.10;17.20;;;3.40;99.90;;;;;;5000207;28;20680;-83
2023/02/15 00:48:38;;;;;;;27.13;17.05;;;3.30;99.90;;;;;;5002740;28;20038;-85
2023/02/15 00:51:03;;;;;;;25.05;15.88;;;3.30;99.90;;;;;;5002539;28;20041;-84
2023/02/15 00:53:30;;;;;;;24.83;16.27;;;3.30;99.90;;;;;;5005243;28;20022;-83
2023/02/15 00:55:56;;;;;;;26.17;16.80;;;3.30;99.90;;;;;;4999698;28;20487;-83
2023/02/15 00:58:22;;;;;;;24.23;15.75;;;3.30;99.90;;;;;;5001362;28;20034;-83
2023/02/15 01:00:48;;;;;;;23.15;15.68;;;3.20;99.90;;;;;;5004432;28;20084;-82
2023/02/15 01:03:17;;;;;;;27.27;16.15;;;3.20;99.90;;;;;;5003481;28;20022;-81
2023/02/15 01:05:42;;;;;;;27.73;16.65;;;3.20;99.90;;;;;;4999909;28;20029;-84
2023/02/15 01:08:08;;;;;;;25.15;17.25;;;3.20;99.90;;;;;;5004141;28;20026;-83
2023/02/15 01:10:34;;;;;;;25.80;16.52;;;3.20;99.90;;;;;;5014770;28;20017;-83
2023/02/15 01:13:00;;;;;;;26.65;17.30;;;3.20;99.90;;;;;;5000236;28;20041;-84
2023/02/15 01:15:26;;;;;;;22.70;15.43;;;3.20;99.90;;;;;;5001905;28;20022;-83
2023/02/15 01:17:53;;;;;;;24.90;15.93;;;3.20;99.90;;;;;;5003892;28;20029;-83
2023/02/15 01:20:20;;;;;;;27.08;16.40;;;3.20;99.90;;;;;;5002182;28;20042;-83
2023/02/15 01:22:46;;;;;;;27.48;16.77;;;3.20;99.90;;;;;;5015439;28;20032;-84
2023/02/15 01:25:12;;;;;;;23.88;15.32;;;3.10;99.90;;;;;;5017253;28;20034;-85
2023/02/15 01:27:37;;;;;;;22.10;14.57;;;3.10;99.90;;;;;;5000230;28;20480;-85
2023/02/15 01:30:04;;;;;;;25.00;16.05;;;3.10;99.90;;;;;;5004846;28;20038;-82
2023/02/15 01:32:30;;;;;;;24.10;15.48;;;3.10;99.90;;;;;;5002360;28;20141;-83
2023/02/15 01:34:56;;;;;;;26.30;17.50;;;3.10;99.90;;;;;;5002941;28;20498;-84
2023/02/15 01:37:21;;;;;;;21.77;14.40;;;3.10;99.90;;;;;;5002524;28;20030;-84
2023/02/15 01:39:47;;;;;;;24.05;14.88;;;3.10;99.90;;;;;;5004818;28;20046;-83
2023/02/15 01:42:12;;;;;;;22.88;14.90;;;3.00;99.90;;;;;;5004149;28;20021;-83
2023/02/15 01:44:50;;;;;;;24.00;15.65;;;3.00;99.90;;;;;;5004113;28;20054;-82
2023/02/15 01:47:33;;;;;;;24.05;15.40;;;3.00;99.90;;;;;;5003003;28;20134;-84
2023/02/15 01:50:06;;;;;;;22.42;14.15;;;2.90;99.90;;;;;;5015097;28;20030;-83
2023/02/15 01:52:34;;;;;;;;;;;2.90;99.90;;;;;;5002981;28;20022;-83
2023/02/15 01:55:00;;;;;;;22.63;14.25;;;2.80;99.90;;;;;;5002794;28;19914;-84
2023/02/15 01:57:28;;;;;;;23.25;14.98;;;2.80;99.90;;;;;;5003303;28;20021;-85
2023/02/15 01:59:59;;;;;;;23.33;15.20;;;2.80;99.90;;;;;;5005266;28;20033;-86
2023/02/15 02:02:27;;;;;;;24.23;14.85;;;2.70;99.90;;;;;;5002027;28;20026;-83
2023/02/15 02:04:56;;;;;;;24.17;14.63;;;2.70;99.90;;;;;;5020902;28;20148;-83
2023/02/15 02:07:26;;;;;;;23.33;14.30;;;2.60;99.90;;;;;;5005582;28;20061;-82
2023/02/15 02:09:52;;;;;;;22.52;14.32;;;2.60;99.90;;;;;;5002093;28;20022;-82
2023/02/15 02:12:19;;;;;;;24.15;14.30;;;2.70;99.90;;;;;;5002851;28;20080;-84
2023/02/15 02:14:47;;;;;;;21.65;13.50;;;2.70;99.90;;;;;;5001083;28;20049;-84
2023/02/15 02:17:24;;;;;;;22.58;14.43;;;2.60;99.90;;;;;;5000199;28;20132;-82
2023/02/15 02:20:12;;;;;;;20.70;13.18;;;2.60;99.90;;;;;;4999219;28;20127;-83
2023/02/15 02:23:05;;;;;;;22.05;13.55;;;2.70;99.90;;;;;;5014565;28;20513;-82
2023/02/15 02:25:40;;;;;;;21.58;13.23;;;2.60;99.90;;;;;;5012920;28;20046;-84
2023/02/15 02:29:03;;;;;;;20.27;13.50;;;2.60;99.90;;;;;;4998349;28;20081;-81
2023/02/15 02:31:38;;;;;;;19.37;12.37;;;2.60;99.90;;;;;;4977969;28;20041;-83
2023/02/15 02:34:21;;;;;;;18.60;12.35;;;2.60;99.90;;;;;;4996718;28;20514;-82
2023/02/15 02:36:58;;;;;;;20.40;13.00;;;2.60;99.90;;;;;;4998584;28;20238;-83
2023/02/15 02:40:01;;;;;;;22.92;13.30;;;2.60;99.90;;;;;;4998707;28;20072;-82
2023/02/15 02:42:39;;;;;;;21.58;13.60;;;2.50;99.90;;;;;;5012436;28;20045;-82
2023/02/15 02:45:15;;;;;;;22.10;14.38;;;2.50;99.90;;;;;;5013244;28;20038;-83
2023/02/15 02:47:48;;;;;;;25.70;14.35;;;2.40;99.90;;;;;;5001291;28;20032;-82
2023/02/15 02:50:17;;;;;;;20.75;13.20;;;2.40;99.90;;;;;;5000125;28;20057;-83
2023/02/15 02:52:48;;;;;;;23.38;13.35;;;2.40;99.90;;;;;;5000204;28;20025;-83
2023/02/15 02:55:37;;;;;;;21.48;12.63;;;2.40;99.90;;;;;;5018311;28;20068;-85
2023/02/15 02:58:11;;;;;;;19.67;12.98;;;2.40;99.90;;;;;;5001041;28;20049;-84
2023/02/15 03:00:47;;;;;;;20.65;12.77;;;2.30;99.90;;;;;;5016437;28;20041;-84
2023/02/15 03:03:27;;;;;;;20.75;13.57;;;2.30;99.90;;;;;;5003181;28;20057;-82
2023/02/15 03:05:56;;;;;;;21.35;13.27;;;2.30;99.90;;;;;;5011401;28;20037;-81
2023/02/15 03:08:27;;;;;;;24.00;13.63;;;2.30;99.90;;;;;;5021512;28;20022;-83
2023/02/15 03:10:55;;;;;;;22.70;13.77;;;2.20;99.90;;;;;;5019685;28;20030;-83
2023/02/15 03:13:22;;;;;;;22.40;13.98;;;2.20;99.90;;;;;;5023434;28;20508;-82
2023/02/15 03:18:52;;;;;;;18.65;12.35;;;2.10;99.90;;;;;;5000028;28;22238;-83
2023/02/15 03:21:25;;;;;;;20.27;13.13;;;2.10;99.90;;;;;;4999127;28;20042;-82
2023/02/15 03:24:01;;;;;;;20.27;12.20;;;2.10;99.90;;;;;;5012641;28;20144;-84
2023/02/15 03:26:28;;;;;;;20.45;12.70;;;2.00;99.90;;;;;;5001079;28;20032;-83
2023/02/15 03:28:56;;;;;;;20.27;12.50;;;2.10;99.90;;;;;;4999239;28;20930;-85
2023/02/15 03:31:25;;;;;;;20.30;12.45;;;2.10;99.90;;;;;;5002786;28;20089;-83
2023/02/15 03:33:58;;;;;;;21.83;12.40;;;2.10;99.90;;;;;;5000075;28;20056;-82
2023/02/15 03:36:34;;;;;;;19.30;12.07;;;2.10;99.90;;;;;;5000093;28;20508;-82
2023/02/15 03:39:18;;;;;;;21.10;12.18;;;2.10;99.90;;;;;;4998315;28;20034;-82
2023/02/15 03:42:01;;;;;;;19.40;12.00;;;2.10;99.90;;;;;;5013684;28;20452;-83
2023/02/15 03:44:30;;;;;;;18.20;11.70;;;2.10;99.90;;;;;;5013898;28;20038;-83
2023/02/15 03:47:10;;;;;;;18.88;11.82;;;2.10;99.90;;;;;;5014482;28;20026;-82
2023/02/15 03:52:59;;;;;;;18.70;11.48;;;2.10;99.90;;;;;;4998902;28;20466;-82
2023/02/15 03:55:25;;;;;;;20.05;13.05;;;2.00;99.90;;;;;;5012826;28;20029;-82
2023/02/15 04:03:41;;;;;;;16.00;10.38;;;2.00;99.90;;;;;;4997515;28;20090;-83
2023/02/15 04:06:07;;;;;;;20.70;11.45;;;2.00;99.90;;;;;;4999563;28;20034;-82
2023/02/15 04:11:16;;;;;;;18.60;11.88;;;2.00;99.90;;;;;;4996563;28;20045;-82
2023/02/15 04:13:42;;;;;;;20.25;11.85;;;1.90;99.90;;;;;;4997269;28;20026;-83
2023/02/15 04:16:08;;;;;;;20.45;12.07;;;2.00;99.90;;;;;;5001196;28;20193;-82
2023/02/15 04:26:58;;;;;;;19.90;12.10;;;1.90;99.90;;;;;;5001743;28;20040;-83
2023/02/15 04:29:25;;;;;;;19.05;12.35;;;1.80;99.90;;;;;;5001096;28;20018;-82
2023/02/15 04:31:52;;;;;;;19.40;11.77;;;1.80;99.90;;;;;;5014443;28;20034;-83
2023/02/15 04:34:18;;;;;;;21.90;12.63;;;1.80;99.90;;;;;;5014793;28;20472;-82
2023/02/15 04:36:44;;;;;;;22.83;12.65;;;1.90;99.90;;;;;;5000893;28;20029;-82
2023/02/15 04:39:12;;;;;;;20.65;12.52;;;1.80;99.90;;;;;;5012086;28;20040;-81
2023/02/15 04:41:37;;;;;;;18.63;11.70;;;1.80;99.90;;;;;;5000146;28;20042;-82
2023/02/15 04:44:03;;;;;;;20.80;12.80;;;1.80;99.90;;;;;;4996864;28;20039;-82
2023/02/15 04:46:29;;;;;;;21.15;13.10;;;1.70;99.90;;;;;;4998188;28;20032;-82
2023/02/15 04:48:55;;;;;;;17.60;11.63;;;1.70;99.90;;;;;;4995952;28;20030;-84
2023/02/15 04:51:20;;;;;;;20.25;12.20;;;1.70;99.90;;;;;;4995239;28;20101;-84
2023/02/15 04:53:46;;;;;;;21.00;12.20;;;1.70;99.90;;;;;;4995988;28;20117;-83
2023/02/15 04:56:11;;;;;;;19.40;12.55;;;1.70;99.90;;;;;;5000542;28;20033;-83
2023/02/15 04:58:40;;;;;;;20.08;12.77;;;1.70;99.90;;;;;;4995959;28;20515;-83
2023/02/15 05:01:06;;;;;;;20.10;12.07;;;1.70;99.90;;;;;;4994549;28;20424;-81
2023/02/15 05:03:32;;;;;;;20.75;12.52;;;1.70;99.90;;;;;;5000569;28;20022;-82
2023/02/15 05:05:57;;;;;;;18.95;12.10;;;1.60;99.90;;;;;;4997657;28;20046;-82
2023/02/15 05:08:23;;;;;;;18.55;11.23;;;1.60;99.90;;;;;;5015839;28;20029;-82
2023/02/15 05:10:49;;;;;;;20.88;13.23;;;1.60;99.90;;;;;;5001132;28;20153;-83
2023/02/15 05:13:15;;;;;;;18.83;11.57;;;1.60;99.90;;;;;;4999386;28;20026;-83
2023/02/15 05:15:40;;;;;;;17.00;11.27;;;1.50;99.90;;;;;;5000749;28;20034;-83
2023/02/15 05:18:07;;;;;;;18.52;11.13;;;1.50;99.90;;;;;;5004695;28;20034;-83
2023/02/15 05:20:33;;;;;;;17.08;11.20;;;1.50;99.90;;;;;;5003686;28;20050;-83
2023/02/15 05:22:59;;;;;;;17.90;11.23;;;1.50;99.90;;;;;;5016641;28;20022;-84
2023/02/15 05:28:20;;;;;;;19.27;11.20;;;1.50;99.90;;;;;;5000822;28;20041;-83
2023/02/15 05:30:51;;;;;;;19.83;11.48;;;1.50;99.90;;;;;;5001654;28;20033;-84
2023/02/15 05:33:17;;;;;;;21.58;11.55;;;1.50;99.90;;;;;;5002734;28;20109;-82
2023/02/15 05:35:43;;;;;;;18.17;11.18;;;1.50;99.90;;;;;;5005022;28;20022;-82
2023/02/15 05:38:09;;;;;;;20.02;11.77;;;1.50;99.90;;;;;;4999597;28;20044;-83
2023/02/15 05:40:34;;;;;;;18.17;11.23;;;1.60;99.90;;;;;;5000899;28;20506;-83
2023/02/15 05:43:00;;;;;;;19.27;12.02;;;1.50;99.90;;;;;;5003315;28;20435;-85
2023/02/15 05:45:26;;;;;;;19.52;11.82;;;1.50;99.90;;;;;;5003745;28;20052;-83
2023/02/15 05:47:51;;;;;;;19.02;11.48;;;1.50;99.90;;;;;;4996921;28;20030;-83
2023/02/15 05:50:17;;;;;;;18.35;11.63;;;1.50;99.90;;;;;;5000556;28;20606;-84
2023/02/15 05:52:43;;;;;;;18.27;10.68;;;1.40;99.90;;;;;;5002181;28;20061;-82
2023/02/15 05:55:08;;;;;;;17.20;10.77;;;1.40;99.90;;;;;;5002186;28;20080;-84
2023/02/15 05:57:35;;;;;;;16.25;10.27;;;1.40;99.90;;;;;;5003428;28;20026;-83
2023/02/15 06:00:04;;;;;;;18.65;10.52;;;1.40;99.90;;;;;;5002052;28;20064;-83
2023/02/15 06:02:33;;;;;;;15.50;10.07;;;1.40;99.90;;;;;;5016049;28;20037;-82
2023/02/15 06:04:59;;;;;;;18.52;10.70;;;1.40;99.90;;;;;;5012803;28;20041;-82
2023/02/15 06:07:24;;;;;;;15.88;9.73;;;1.30;99.90;;;;;;4999248;28;20021;-82
2023/02/15 06:09:50;;;;;;;19.52;11.10;;;1.30;99.90;;;;;;4998564;28;20026;-83
2023/02/15 06:12:15;;;;;;;20.52;11.60;;;1.30;99.90;;;;;;5014067;28;20029;-83
2023/02/15 06:14:41;;;;;;;19.15;11.07;;;1.20;99.90;;;;;;4997994;28;20063;-83
2023/02/15 06:17:07;;;;;;;19.92;11.18;;;1.20;99.90;;;;;;5000433;28;20064;-82
2023/02/15 06:19:32;;;;;;;17.92;10.60;;;1.20;99.90;;;;;;5001397;28;20464;-82
2023/02/15 06:21:58;;;;;;;21.40;11.57;;;1.20;99.90;;;;;;4998142;28;20072;-82
2023/02/15 06:24:23;;;;;;;17.90;11.13;;;1.20;99.90;;;;;;4998281;28;20109;-82
2023/02/15 06:26:49;;;;;;;18.35;11.40;;;1.20;99.90;;;;;;5010692;28;20033;-82
2023/02/15 06:29:15;;;;;;;17.77;10.98;;;1.20;99.90;;;;;;4996516;28;20022;-82
2023/02/15 06:31:41;;;;;;;18.77;11.25;;;1.20;99.90;;;;;;4997276;28;20082;-82
2023/02/15 06:34:07;;;;;;;17.83;10.75;;;1.10;99.90;;;;;;5013613;28;20088;-83
2023/02/15 06:36:33;;;;;;;18.73;10.45;;;1.10;99.90;;;;;;4995134;28;20033;-83
2023/02/15 06:38:59;;;;;;;17.58;10.77;;;1.20;99.90;;;;;;4999504;28;20032;-83
2023/02/15 06:41:24;;;;;;;16.23;10.20;;;1.10;99.90;;;;;;4997606;28;20399;-83
2023/02/15 06:43:50;;;;;;;17.00;10.07;;;1.10;99.90;;;;;;4999884;28;20050;-82
2023/02/15 06:46:16;;;;;;;20.92;11.43;;;1.20;99.90;;;;;;4996931;28;20026;-82
2023/02/15 06:48:42;;;;;;;21.10;10.90;;;1.20;99.90;;;;;;4999153;28;20040;-84
2023/02/15 06:51:07;;;;;;;17.95;10.63;;;1.20;99.90;;;;;;5000993;28;20026;-83
2023/02/15 06:53:33;;;;;;;16.50;10.23;;;1.20;99.90;;;;;;4995426;28;20897;-83
2023/02/15 06:56:06;;;;;;;18.02;11.13;;;1.20;99.90;;;;;;4999124;28;20128;-84
2023/02/15 06:58:36;;;;;;;19.15;12.00;;;1.20;99.90;;;;;;5000994;28;20660;-82
2023/02/15 07:01:02;;;;;;;18.27;10.77;;;1.20;99.90;;;;;;5001806;28;20042;-84
2023/02/15 07:03:27;;;;;;;19.88;11.40;;;1.20;99.90;;;;;;5001466;28;20083;-84
2023/02/15 07:05:58;;;;;;;21.15;12.20;;;1.20;99.90;;;;;;4996308;28;20061;-83
2023/02/15 07:08:24;;;;;;;16.88;11.05;;;1.20;99.90;;;;;;5013532;28;20065;-82
2023/02/15 07:12:40;;;;;;;22.50;12.95;;;1.20;99.90;;;;;;4997195;28;20084;-83
2023/02/15 07:13:44;;;;;;;;;;;1.20;99.90;;;;;;4998615;28;20068;-84
2023/02/15 07:16:10;;;;;;;17.85;10.40;;;1.30;99.90;;;;;;4998867;28;19957;-84
2023/02/15 07:18:36;;;;;;;16.77;10.32;;;1.30;99.90;;;;;;5005317;28;20045;-86
2023/02/15 07:21:02;;;;;;;19.00;10.88;;;1.30;99.90;;;;;;5005176;28;20046;-88
2023/02/15 07:23:31;;;;;;;18.10;10.55;;;1.30;99.90;;;;;;5001505;28;20030;-87
2023/02/15 07:26:01;;;;;;;16.95;10.95;;;1.30;99.90;;;;;;5003163;28;20125;-86
2023/02/15 07:28:27;;;;;;;19.90;11.20;;;1.40;99.90;;;;;;4999880;28;20030;-81
2023/02/15 07:30:53;;;;;;;18.38;11.07;;;1.40;99.90;;;;;;4997590;28;20154;-84
2023/02/15 07:33:26;;;;;;;20.13;11.93;;;1.40;99.90;;;;;;5001674;28;20540;-83
2023/02/15 07:35:57;;;;;;;;;;;1.50;99.90;;;;;;5003987;28;20395;-84
2023/02/15 07:38:26;;;;;;;18.15;10.80;;;1.50;99.90;;;;;;5002220;28;19918;-85
2023/02/15 07:40:58;;;;;;;23.02;12.77;;;1.60;99.90;;;;;;4999672;28;20063;-81
2023/02/15 07:43:24;;;;;;;24.73;14.13;;;1.60;99.90;;;;;;5016480;28;20068;-82
2023/02/15 07:45:49;;;;;;;24.95;14.77;;;1.70;99.90;;;;;;5020707;28;20022;-83
2023/02/15 07:48:15;;;;;;;28.30;16.10;;;1.80;99.90;;;;;;5021729;28;20125;-82
2023/02/15 07:50:40;;;;;;;26.25;15.57;;;1.90;99.90;;;;;;5009212;28;20021;-84
2023/02/15 07:53:09;;;;;;;29.40;15.77;;;1.90;99.90;;;;;;5006498;28;20029;-84
2023/02/15 07:55:34;;;;;;;26.88;15.38;;;2.00;99.90;;;;;;5006639;28;20030;-83
2023/02/15 07:58:00;;;;;;;27.40;15.85;;;2.10;99.90;;;;;;5001079;28;20041;-82
2023/02/15 08:00:26;;;;;;;26.45;15.60;;;2.20;99.90;;;;;;5004184;28;20064;-83
2023/02/15 08:05:40;;;;;;;23.15;14.43;;;2.30;99.90;;;;;;4998925;28;20116;-82
2023/02/15 08:08:29;;;;;;;24.30;14.35;;;2.40;99.90;;;;;;4998094;28;20598;-85
2023/02/15 08:14:02;;;;;;;26.52;15.43;;;2.50;99.90;;;;;;5009142;28;20484;-84
2023/02/15 08:16:36;;;;;;;26.02;14.68;;;2.60;99.90;;;;;;5013982;28;20120;-82
2023/02/15 08:19:11;;;;;;;22.67;14.13;;;2.70;99.90;;;;;;5001912;28;20068;-82
2023/02/15 08:21:40;;;;;;;23.00;14.18;;;2.80;99.90;;;;;;4995662;28;20046;-82
2023/02/15 08:24:07;;;;;;;24.67;13.23;;;2.90;99.90;;;;;;5011863;28;20026;-83
2023/02/15 08:26:33;;;;;;;23.85;14.00;;;2.90;99.90;;;;;;4999717;28;20034;-83
2023/02/15 08:29:00;;;;;;;23.13;13.10;;;3.00;99.90;;;;;;4997240;28;20376;-83
2023/02/15 08:31:26;;;;;;;24.27;14.13;;;3.00;99.90;;;;;;4995685;28;20081;-84
2023/02/15 08:33:54;;;;;;;21.13;13.25;;;3.10;99.90;;;;;;4999704;28;20583;-84
2023/02/15 08:36:22;;;;;;;23.50;13.90;;;3.20;99.90;;;;;;4995487;28;20032;-82
2023/02/15 08:38:48;;;;;;;24.77;15.02;;;3.30;99.90;;;;;;5000367;28;20025;-84
2023/02/15 08:41:32;;;;;;;26.02;15.10;;;3.40;99.90;;;;;;4998195;28;20036;-85
2023/02/15 08:44:03;;;;;;;24.13;14.27;;;3.50;99.90;;;;;;4998058;28;20061;-85
2023/02/15 08:46:34;;;;;;;23.63;14.15;;;3.50;99.90;;;;;;4999206;28;20027;-83
2023/02/15 08:49:00;;;;;;;24.63;15.48;;;3.60;99.90;;;;;;5013674;28;20392;-84
2023/02/15 08:51:34;;;;;;;26.73;16.42;;;3.70;99.90;;;;;;4998104;28;20044;-83
2023/02/15 08:54:03;;;;;;;29.65;17.95;;;3.90;99.90;;;;;;4999342;28;20033;-84
2023/02/15 08:56:34;;;;;;;29.17;16.73;;;4.00;99.90;;;;;;5014299;28;20041;-87
2023/02/15 08:59:02;;;;;;;28.42;16.83;;;4.10;99.90;;;;;;4999673;28;20062;-86
2023/02/15 09:01:30;;;;;;;28.25;17.60;;;4.20;99.90;;;;;;4996897;28;20243;-83
2023/02/15 09:03:58;;;;;;;33.53;19.88;;;4.30;99.90;;;;;;5015114;28;20029;-82
2023/02/15 09:06:24;;;;;;;29.88;17.83;;;4.50;99.90;;;;;;4998285;28;20025;-82
2023/02/15 09:08:53;;;;;;;27.88;17.58;;;4.60;99.90;;;;;;5012056;28;22237;-84
2023/02/15 09:11:25;;;;;;;29.45;17.95;;;4.80;99.90;;;;;;5002353;28;20079;-84
2023/02/15 09:13:53;;;;;;;27.40;17.05;;;4.90;99.90;;;;;;5002092;28;20116;-85
2023/02/15 09:16:20;;;;;;;32.80;20.35;;;5.10;99.90;;;;;;5015473;28;20037;-85
2023/02/15 09:18:46;;;;;;;34.25;22.05;;;5.20;99.90;;;;;;4999987;28;20027;-85
2023/02/15 09:21:15;;;;;;;37.60;22.15;;;5.40;99.90;;;;;;5001832;28;20034;-84
2023/02/15 09:23:42;;;;;;;37.67;23.42;;;5.60;99.90;;;;;;5000516;28;20128;-85
2023/02/15 09:26:12;;;;;;;34.58;22.63;;;5.80;99.90;;;;;;5017059;28;20393;-85
2023/02/15 09:28:38;;;;;;;37.08;21.77;;;6.20;99.90;;;;;;5015967;28;20056;-83
2023/02/15 09:31:15;;;;;;;32.53;21.92;;;6.90;99.90;;;;;;5002004;28;20037;-82
2023/02/15 09:33:42;;;;;;;31.30;19.75;;;7.60;99.90;;;;;;5004516;28;20037;-86
2023/02/15 09:36:17;;;;;;;24.75;16.25;;;8.40;99.90;;;;;;4999222;28;20103;-84
2023/02/15 09:38:44;;;;;;;24.25;15.50;;;9.10;99.90;;;;;;5015794;28;20129;-85
2023/02/15 09:41:23;;;;;;;23.30;15.00;;;9.60;99.90;;;;;;5002963;28;20424;-84
2023/02/15 09:44:14;;;;;;;23.33;15.15;;;9.80;99.90;;;;;;4999450;28;20050;-83
2023/02/15 09:47:05;;;;;;;23.25;15.05;;;10.00;99.90;;;;;;5016909;28;20069;-84
2023/02/15 09:49:49;;;;;;;24.35;16.08;;;10.70;99.90;;;;;;5000922;28;20053;-82
2023/02/15 09:52:25;;;;;;;;;;;11.30;99.90;;;;;;5015740;28;20125;-86
2023/02/15 09:55:02;;;;;;;23.85;16.38;;;11.80;99.90;;;;;;5015128;28;20527;-83
2023/02/15 09:57:37;;;;;;;24.17;16.77;;;12.10;99.90;;;;;;5001485;28;20058;-84
2023/02/15 10:00:21;;;;;;;24.77;15.90;;;12.50;99.90;;;;;;5000197;28;20033;-85
2023/02/15 10:03:06;;;;;;;24.38;15.85;;;12.70;99.90;;;;;;5002946;28;20034;-84
2023/02/15 10:06:10;;;;;;;23.75;16.15;;;12.70;99.90;;;;;;5013937;28;20030;-84
2023/02/15 10:08:59;;;;;;;;;;;12.90;99.90;;;;;;5001669;28;20477;-81
2023/02/15 10:12:02;;;;;;;22.30;15.80;;;13.00;99.90;;;;;;4999285;28;19914;-83
2023/02/15 10:14:51;;;;;;;23.38;16.23;;;13.40;99.90;;;;;;5013295;28;20637;-83
2023/02/15 10:17:34;;;;;;;20.95;14.48;;;13.90;99.90;;;;;;5008923;28;20129;-85
2023/02/15 10:20:36;;;;;;;19.90;13.85;;;14.50;99.90;;;;;;5012846;28;20050;-84
2023/02/15 10:23:27;;;;;;;21.80;14.85;;;15.20;99.90;;;;;;5000340;28;20112;-81
2023/02/15 10:26:20;;;;;;;19.00;13.68;;;15.80;99.90;;;;;;5013108;28;20041;-85
2023/02/15 10:28:53;;;;;;;18.10;13.10;;;16.10;99.90;;;;;;5003220;28;20377;-83
2023/02/15 10:31:31;;;;;;;19.63;15.02;;;16.40;99.90;;;;;;4999621;28;20037;-82
2023/02/15 10:34:32;;;;;;;18.85;13.23;;;16.80;99.90;;;;;;4999136;28;20057;-83
2023/02/15 10:37:16;;;;;;;21.38;13.80;;;17.20;99.90;;;;;;4999775;28;20122;-86
2023/02/15 10:39:42;;;;;;;20.02;14.05;;;17.60;99.90;;;;;;5013862;28;20033;-83
2023/02/15 10:42:32;;;;;;;19.33;13.52;;;17.70;99.90;;;;;;5016877;28;20045;-84
2023/02/15 10:45:09;;;;;;;19.50;13.23;;;17.70;99.90;;;;;;5015348;28;20142;-83
2023/02/15 10:47:58;;;;;;;18.42;13.43;;;17.70;99.90;;;;;;5013796;28;20021;-84
2023/02/15 10:50:47;;;;;;;18.27;13.57;;;17.80;99.90;;;;;;5000214;28;20072;-83
2023/02/15 10:53:26;;;;;;;20.23;13.80;;;17.60;99.90;;;;;;4995068;28;20046;-84
2023/02/15 10:56:19;;;;;;;19.40;13.60;;;17.60;99.90;;;;;;5015643;28;20042;-86
2023/02/15 10:59:18;;;;;;;16.98;12.32;;;18.00;99.90;;;;;;5000105;28;20033;-81
2023/02/15 11:01:53;;;;;;;22.73;16.67;;;18.30;99.90;;;;;;5002769;28;20168;-83
2023/02/15 11:05:03;;;;;;;21.00;14.88;;;18.30;99.90;;;;;;5011604;28;20041;-82
2023/02/15 11:07:45;;;;;;;21.98;14.60;;;18.30;99.90;;;;;;4979495;28;20685;-83
2023/02/15 11:10:40;;;;;;;18.75;13.70;;;18.40;99.90;;;;;;4993048;28;20061;-80
2023/02/15 11:13:14;;;;;;;20.80;14.63;;;18.60;99.90;;;;;;4996946;28;20058;-82
2023/02/15 11:15:54;;;;;;;20.65;14.25;;;18.70;99.90;;;;;;4997838;28;20032;-83
2023/02/15 11:18:37;;;;;;;22.25;14.10;;;19.00;99.90;;;;;;5015661;28;20030;-82
2023/02/15 11:21:36;;;;;;;18.37;13.83;;;19.40;99.90;;;;;;5001706;28;20480;-82
2023/02/15 11:24:10;;;;;;;18.05;13.73;;;19.70;99.90;;;;;;4998665;28;20034;-83
2023/02/15 11:26:57;;;;;;;19.92;14.43;;;20.00;99.90;;;;;;4997952;28;20026;-81
2023/02/15 11:29:37;;;;;;;18.40;14.02;;;19.90;99.90;;;;;;5000153;28;20037;-82
2023/02/15 11:32:20;;;;;;;15.05;11.98;;;19.60;99.90;;;;;;5003353;28;20049;-83
2023/02/15 11:35:05;;;;;;;;;;;19.70;99.90;;;;;;5018840;28;20024;-82
2023/02/15 11:37:46;;;;;;;20.05;13.73;;;19.70;99.90;;;;;;5018856;28;19941;-85
2023/02/15 11:40:33;;;;;;;18.60;12.00;;;20.10;99.90;;;;;;5003248;28;20037;-82
2023/02/15 11:43:12;;;;;;;21.48;15.18;;;20.10;99.90;;;;;;5000622;28;20034;-80
2023/02/15 11:45:42;;;;;;;24.08;17.48;;;20.00;99.90;;;;;;5017721;28;20041;-82
2023/02/15 11:48:13;;;;;;;19.73;14.15;;;19.70;99.90;;;;;;5016415;28;20384;-82
2023/02/15 11:50:40;;;;;;;19.73;13.88;;;19.60;99.90;;;;;;5000971;28;20145;-83
2023/02/15 11:53:24;;;;;;;18.23;13.23;;;20.00;99.90;;;;;;5017121;28;20045;-85
2023/02/15 11:55:53;;;;;;;18.58;12.70;;;20.10;99.90;;;;;;5006993;28;20048;-82
2023/02/15 11:58:41;;;;;;;18.30;12.88;;;19.90;99.90;;;;;;5015983;28;20022;-81
2023/02/15 12:01:36;;;;;;;27.05;18.92;;;19.30;99.90;;;;;;5005455;28;20514;-84
2023/02/15 12:04:14;;;;;;;20.42;15.35;;;18.60;99.90;;;;;;4999631;28;20049;-82
2023/02/15 12:06:53;;;;;;;18.98;14.43;;;17.90;99.90;;;;;;4997709;28;20112;-83
2023/02/15 12:09:31;;;;;;;19.70;14.82;;;17.70;99.90;;;;;;4999769;28;20681;-81
2023/02/15 12:12:24;;;;;;;20.30;15.52;;;17.90;99.90;;;;;;5002225;28;20105;-81
2023/02/15 12:14:53;;;;;;;20.73;14.57;;;18.20;99.90;;;;;;5005733;28;20077;-80
2023/02/15 12:17:23;;;;;;;24.05;16.95;;;18.30;99.90;;;;;;5003736;28;20034;-82
2023/02/15 12:19:52;;;;;;;20.80;14.30;;;18.60;99.90;;;;;;5005105;28;20030;-82
2023/02/15 12:22:24;;;;;;;22.02;15.30;;;18.90;99.90;;;;;;5008324;28;20459;-80
2023/02/15 12:24:54;;;;;;;18.63;14.57;;;19.20;99.90;;;;;;5007357;28;20034;-81
2023/02/15 12:27:23;;;;;;;22.17;14.82;;;19.10;99.90;;;;;;5016978;28;20042;-82
2023/02/15 12:29:53;;;;;;;19.30;13.68;;;19.30;99.90;;;;;;5035349;28;20041;-82
2023/02/15 12:32:24;;;;;;;20.67;14.63;;;19.50;99.90;;;;;;5023567;28;20605;-82
2023/02/15 12:34:52;;;;;;;20.02;13.82;;;19.70;99.90;;;;;;5018121;28;20053;-84
2023/02/15 12:37:31;;;;;;;21.52;15.82;;;19.80;99.90;;;;;;5011072;28;20049;-83
2023/02/15 12:40:17;;;;;;;17.25;12.88;;;20.00;99.90;;;;;;5009631;28;20033;-84
2023/02/15 12:42:44;;;;;;;19.13;13.68;;;20.20;99.90;;;;;;5007380;28;20029;-84
2023/02/15 12:45:27;;;;;;;18.45;14.60;;;20.60;99.90;;;;;;5011460;28;20034;-84
2023/02/15 12:48:16;;;;;;;20.23;14.48;;;20.60;99.90;;;;;;5023158;28;20567;-82
2023/02/15 12:50:44;;;;;;;20.67;15.32;;;20.70;99.90;;;;;;5007072;28;20022;-80
2023/02/15 12:53:23;;;;;;;18.30;14.77;;;20.70;99.90;;;;;;5004800;28;20578;-80
2023/02/15 12:56:02;;;;;;;22.70;15.77;;;20.90;99.90;;;;;;5007579;28;20053;-80
2023/02/15 12:58:33;;;;;;;17.95;13.95;;;20.80;99.90;;;;;;5005336;28;20093;-83
2023/02/15 13:01:20;;;;;;;17.40;12.85;;;20.70;99.90;;;;;;5007139;28;20579;-82
2023/02/15 13:04:00;;;;;;;17.40;13.20;;;20.90;99.90;;;;;;5009491;28;20085;-80
2023/02/15 13:06:27;;;;;;;17.90;13.00;;;21.00;99.90;;;;;;5004971;28;20117;-82
2023/02/15 13:09:06;;;;;;;17.30;12.88;;;21.20;99.90;;;;;;5002369;28;20037;-79
2023/02/15 13:11:34;;;;;;;17.20;13.20;;;21.60;99.90;;;;;;5003522;28;20026;-81
2023/02/15 13:14:16;;;;;;;17.42;12.80;;;21.60;99.90;;;;;;5021300;28;20026;-82
2023/02/15 13:16:45;;;;;;;17.05;13.82;;;21.20;99.90;;;;;;5019909;28;20072;-80
2023/02/15 13:19:33;;;;;;;22.02;14.88;;;20.50;99.90;;;;;;5003838;28;20021;-80
2023/02/15 13:22:02;;;;;;;22.08;16.52;;;19.80;99.90;;;;;;5003024;28;20610;-79
2023/02/15 13:24:35;;;;;;;21.60;15.48;;;19.30;99.90;;;;;;5003080;28;20211;-82
2023/02/15 13:27:01;;;;;;;22.33;16.30;;;19.00;99.90;;;;;;5004628;28;20030;-80
2023/02/15 13:29:37;;;;;;;21.70;15.48;;;18.70;99.90;;;;;;5009490;28;20046;-85
2023/02/15 13:32:29;;;;;;;22.55;16.17;;;18.50;99.90;;;;;;5004555;28;20116;-81
2023/02/15 13:35:01;;;;;;;19.55;14.65;;;18.10;99.90;;;;;;5018167;28;20036;-80